Time;durP1;ratioP1;P1;durP2;ratioP2;P2;SDS_P1;SDS_P2;PMS_P1;PMS_P2;Temp;Humidity;BMP_temperature;BMP_pressure;BME280_temperature;BME280_humidity;BME280_pressure;Samples;Min_cycle;Max_cycle;Signal;HPM_P1;HPM_P2
2023/04/20 00:02:21;;;;;;;10.10;7.97;;;;;;;;;;5112186;28;20282;-81
2023/04/20 00:04:48;;;;;;;9.83;8.13;;;;;;;;;;5112570;28;20194;-81
2023/04/20 00:07:16;;;;;;;10.97;8.17;;;;;;;;;;5112765;28;20229;-81
2023/04/20 00:09:43;;;;;;;9.87;7.90;;;;;;;;;;5112493;28;20204;-81
2023/04/20 00:12:12;;;;;;;9.97;8.17;;;;;;;;;;5112115;28;20201;-81
2023/04/20 00:14:39;;;;;;;8.87;7.70;;;;;;;;;;5111984;28;20208;-81
2023/04/20 00:17:06;;;;;;;9.10;7.50;;;;;;;;;;5111888;28;20656;-81
2023/04/20 00:19:33;;;;;;;8.60;7.70;;;;;;;;;;5112502;28;20208;-81
2023/04/20 00:22:01;;;;;;;10.67;8.00;;;;;;;;;;5112326;28;20236;-80
2023/04/20 00:24:28;;;;;;;9.13;7.37;;;;;;;;;;5112542;28;20269;-81
2023/04/20 00:26:55;;;;;;;8.87;7.20;;;;;;;;;;5112058;28;20225;-80
2023/04/20 00:29:24;;;;;;;8.43;7.33;;;;;;;;;;5112133;28;20620;-81
2023/04/20 00:31:51;;;;;;;8.27;7.47;;;;;;;;;;5111137;28;20737;-81
2023/04/20 00:34:18;;;;;;;8.13;7.10;;;;;;;;;;5112208;28;20281;-81
2023/04/20 00:36:45;;;;;;;9.70;7.80;;;;;;;;;;5111652;28;20284;-81
2023/04/20 00:39:12;;;;;;;10.80;7.93;;;;;;;;;;5111597;28;20299;-81
2023/04/20 00:41:40;;;;;;;8.60;7.47;;;;;;;;;;5112298;28;20270;-82
2023/04/20 00:44:10;;;;;;;9.73;7.50;;;;;;;;;;5111893;28;20202;-81
2023/04/20 00:46:38;;;;;;;8.57;7.53;;;;;;;;;;5111568;28;20292;-81
2023/04/20 00:49:06;;;;;;;9.50;7.53;;;;;;;;;;5112036;28;20280;-81
2023/04/20 00:51:33;;;;;;;8.77;7.37;;;;;;;;;;5111746;28;20682;-81
2023/04/20 00:54:01;;;;;;;8.93;7.50;;;;;;;;;;5111778;28;20676;-81
2023/04/20 00:56:28;;;;;;;9.43;7.50;;;;;;;;;;5111628;28;20750;-81
2023/04/20 00:58:55;;;;;;;8.63;7.47;;;;;;;;;;5111688;28;20680;-81
2023/04/20 01:01:22;;;;;;;9.90;8.20;;;;;;;;;;5111242;28;20288;-81
2023/04/20 01:03:51;;;;;;;11.43;8.17;;;;;;;;;;5112015;28;20244;-80
2023/04/20 01:06:18;;;;;;;9.07;7.43;;;;;;;;;;5111811;28;20206;-80
2023/04/20 01:08:46;;;;;;;8.60;7.37;;;;;;;;;;5111480;28;20284;-82
2023/04/20 01:11:13;;;;;;;8.53;7.40;;;;;;;;;;5111187;28;20248;-81
2023/04/20 01:13:40;;;;;;;9.70;7.77;;;;;;;;;;5111609;28;20705;-81
2023/04/20 01:16:08;;;;;;;9.50;8.27;;;;;;;;;;5110738;28;20737;-81
2023/04/20 01:18:42;;;;;;;10.57;7.53;;;;;;;;;;5111917;28;20249;-81
2023/04/20 01:21:12;;;;;;;9.43;7.63;;;;;;;;;;5111463;28;20199;-81
2023/04/20 01:23:40;;;;;;;9.30;7.50;;;;;;;;;;5111715;28;20281;-80
2023/04/20 01:26:08;;;;;;;9.77;8.00;;;;;;;;;;5111532;28;20201;-80
2023/04/20 01:28:35;;;;;;;9.13;7.23;;;;;;;;;;5111495;28;20200;-80
2023/04/20 01:31:03;;;;;;;10.10;7.20;;;;;;;;;;5111754;28;20290;-81
2023/04/20 01:33:30;;;;;;;8.63;7.27;;;;;;;;;;5111445;28;20634;-81
2023/04/20 01:35:57;;;;;;;10.13;7.73;;;;;;;;;;5111000;28;20200;-81
2023/04/20 01:38:25;;;;;;;10.27;7.77;;;;;;;;;;5111213;28;20655;-79
2023/04/20 01:40:54;;;;;;;8.70;7.53;;;;;;;;;;5111402;28;20236;-81
2023/04/20 01:43:22;;;;;;;10.03;8.00;;;;;;;;;;5112284;28;20330;-80
2023/04/20 01:45:49;;;;;;;10.17;8.20;;;;;;;;;;5111831;28;20297;-80
2023/04/20 01:48:17;;;;;;;9.17;7.50;;;;;;;;;;5094751;28;20237;-80
2023/04/20 01:50:44;;;;;;;9.73;7.80;;;;;;;;;;5094389;28;20634;-79
2023/04/20 01:53:12;;;;;;;10.20;8.17;;;;;;;;;;5094964;28;20198;-80
2023/04/20 01:55:40;;;;;;;9.17;7.90;;;;;;;;;;5094679;28;20198;-81
2023/04/20 01:58:08;;;;;;;9.80;8.03;;;;;;;;;;5093998;28;20237;-80
2023/04/20 02:00:35;;;;;;;11.37;8.93;;;;;;;;;;5094681;28;20289;-80
2023/04/20 02:03:03;;;;;;;14.80;9.27;;;;;;;;;;5094854;28;20269;-79
2023/04/20 02:05:30;;;;;;;11.77;9.47;;;;;;;;;;5094528;28;20222;-80
2023/04/20 02:07:57;;;;;;;12.03;9.20;;;;;;;;;;5094624;28;20226;-81
2023/04/20 02:10:25;;;;;;;11.63;9.87;;;;;;;;;;5094327;28;20634;-81
2023/04/20 02:12:52;;;;;;;12.13;10.00;;;;;;;;;;5096523;28;20291;-80
2023/04/20 02:15:21;;;;;;;13.67;10.43;;;;;;;;;;5114515;28;20273;-80
2023/04/20 02:17:50;;;;;;;13.47;10.50;;;;;;;;;;5114768;28;20237;-82
2023/04/20 02:20:19;;;;;;;15.50;11.27;;;;;;;;;;5114503;28;20226;-81
2023/04/20 02:22:46;;;;;;;12.50;10.57;;;;;;;;;;5114632;28;20201;-80
2023/04/20 02:25:13;;;;;;;13.37;10.73;;;;;;;;;;5114233;28;20230;-79
2023/04/20 02:27:41;;;;;;;13.97;10.97;;;;;;;;;;5114217;28;20295;-79
2023/04/20 02:30:09;;;;;;;12.90;10.40;;;;;;;;;;5113206;28;20290;-81
2023/04/20 02:32:37;;;;;;;14.47;11.43;;;;;;;;;;5114102;28;20197;-79
2023/04/20 02:35:05;;;;;;;15.57;11.93;;;;;;;;;;5114416;28;20677;-79
2023/04/20 02:37:32;;;;;;;14.90;11.47;;;;;;;;;;5114255;28;20256;-81
2023/04/20 02:39:59;;;;;;;14.03;12.00;;;;;;;;;;5114308;28;20285;-80
2023/04/20 02:42:27;;;;;;;17.13;12.67;;;;;;;;;;5113633;28;20226;-80
2023/04/20 02:44:55;;;;;;;15.80;12.37;;;;;;;;;;5114814;28;20706;-81
2023/04/20 02:47:22;;;;;;;14.57;12.50;;;;;;;;;;5113838;28;20193;-80
2023/04/20 02:49:51;;;;;;;16.47;12.53;;;;;;;;;;5113916;28;20193;-80
2023/04/20 02:52:18;;;;;;;14.17;12.23;;;;;;;;;;5114126;28;20385;-81
2023/04/20 02:54:46;;;;;;;14.87;12.20;;;;;;;;;;5113555;28;20281;-80
2023/04/20 02:57:13;;;;;;;16.17;12.40;;;;;;;;;;5113856;28;20261;-80
2023/04/20 02:59:40;;;;;;;15.87;12.13;;;;;;;;;;5113982;28;20220;-80
2023/04/20 03:02:07;;;;;;;15.47;12.47;;;;;;;;;;5113874;28;20673;-80
2023/04/20 03:04:35;;;;;;;15.33;12.60;;;;;;;;;;5113524;28;20197;-80
2023/04/20 03:07:04;;;;;;;15.50;12.80;;;;;;;;;;5113724;28;20189;-80
2023/04/20 03:09:31;;;;;;;17.27;12.73;;;;;;;;;;5113873;28;20194;-80
2023/04/20 03:11:58;;;;;;;16.20;13.20;;;;;;;;;;5112938;28;20297;-80
2023/04/20 03:14:26;;;;;;;15.73;12.53;;;;;;;;;;5113288;28;20294;-80
2023/04/20 03:16:53;;;;;;;17.50;12.67;;;;;;;;;;5113516;28;20319;-80
2023/04/20 03:19:20;;;;;;;15.67;12.40;;;;;;;;;;5113533;28;20295;-80
2023/04/20 03:21:47;;;;;;;14.70;12.47;;;;;;;;;;5113689;28;20738;-80
2023/04/20 03:24:16;;;;;;;15.90;13.33;;;;;;;;;;5113246;28;20633;-81
2023/04/20 03:26:43;;;;;;;15.60;12.50;;;;;;;;;;5112902;28;20653;-80
2023/04/20 03:29:10;;;;;;;16.27;12.27;;;;;;;;;;5113230;28;20224;-79
2023/04/20 03:31:37;;;;;;;15.17;12.47;;;;;;;;;;5113571;28;20628;-80
2023/04/20 03:34:05;;;;;;;16.67;12.60;;;;;;;;;;5113108;28;20229;-80
2023/04/20 03:36:32;;;;;;;17.73;12.53;;;;;;;;;;5112942;28;20262;-79
2023/04/20 03:38:59;;;;;;;15.33;12.23;;;;;;;;;;5113076;28;20268;-80
2023/04/20 03:41:28;;;;;;;15.30;11.97;;;;;;;;;;5112745;28;20736;-79
2023/04/20 03:43:55;;;;;;;16.60;12.07;;;;;;;;;;5112768;28;20198;-81
2023/04/20 03:46:22;;;;;;;17.23;11.87;;;;;;;;;;5112976;28;20607;-80
2023/04/20 03:48:49;;;;;;;16.83;12.60;;;;;;;;;;5112772;28;20190;-80
2023/04/20 03:51:16;;;;;;;15.87;11.70;;;;;;;;;;5112877;28;20204;-80
2023/04/20 03:53:44;;;;;;;17.53;12.10;;;;;;;;;;5112388;28;20197;-80
2023/04/20 03:56:11;;;;;;;13.57;11.57;;;;;;;;;;5112994;28;20202;-80
2023/04/20 03:58:39;;;;;;;16.20;11.50;;;;;;;;;;5112647;28;20327;-79
2023/04/20 04:01:08;;;;;;;14.17;11.50;;;;;;;;;;5113136;28;20236;-80
2023/04/20 04:03:35;;;;;;;13.97;10.90;;;;;;;;;;5112991;28;20200;-80
2023/04/20 04:06:03;;;;;;;13.27;11.23;;;;;;;;;;5111736;28;20200;-80
2023/04/20 04:08:30;;;;;;;13.90;10.53;;;;;;;;;;5111791;28;20198;-80
2023/04/20 04:10:57;;;;;;;12.30;10.77;;;;;;;;;;5112912;28;20202;-80
2023/04/20 04:13:24;;;;;;;12.53;10.67;;;;;;;;;;5112425;28;20204;-80
2023/04/20 04:15:53;;;;;;;13.53;11.07;;;;;;;;;;5112372;28;20243;-80
2023/04/20 04:18:21;;;;;;;14.90;10.93;;;;;;;;;;5112197;28;20256;-80
2023/04/20 04:20:48;;;;;;;12.37;10.60;;;;;;;;;;5112292;28;20314;-80
2023/04/20 04:23:15;;;;;;;13.37;9.83;;;;;;;;;;5111776;28;20195;-79
2023/04/20 04:25:42;;;;;;;14.97;10.57;;;;;;;;;;5112081;28;20289;-79
2023/04/20 04:28:10;;;;;;;13.57;9.70;;;;;;;;;;5111888;28;20216;-80
2023/04/20 04:30:37;;;;;;;12.60;9.67;;;;;;;;;;5112685;28;20198;-80
2023/04/20 04:33:06;;;;;;;14.07;9.73;;;;;;;;;;5112238;28;20205;-81
2023/04/20 04:35:33;;;;;;;13.43;10.13;;;;;;;;;;5112274;28;20204;-80
2023/04/20 04:38:01;;;;;;;11.50;8.83;;;;;;;;;;5111613;28;20236;-79
2023/04/20 04:40:28;;;;;;;12.03;9.37;;;;;;;;;;5112110;28;20197;-81
2023/04/20 04:42:55;;;;;;;11.50;9.50;;;;;;;;;;5111734;28;20283;-79
2023/04/20 04:45:24;;;;;;;12.57;9.27;;;;;;;;;;5111751;28;20239;-80
2023/04/20 04:47:52;;;;;;;14.67;8.90;;;;;;;;;;5112179;28;20196;-79
2023/04/20 04:50:21;;;;;;;12.30;8.87;;;;;;;;;;5112060;28;20197;-80
2023/04/20 04:52:48;;;;;;;11.63;9.03;;;;;;;;;;5111040;28;20207;-79
2023/04/20 04:55:15;;;;;;;10.47;8.60;;;;;;;;;;5111614;28;20193;-79
2023/04/20 04:57:43;;;;;;;12.00;8.53;;;;;;;;;;5111473;28;20217;-80
2023/04/20 05:00:11;;;;;;;10.90;8.27;;;;;;;;;;5111241;28;20711;-80
2023/04/20 05:02:38;;;;;;;11.70;8.67;;;;;;;;;;5112035;28;20197;-79
2023/04/20 05:05:07;;;;;;;12.80;8.50;;;;;;;;;;5111060;28;20257;-80
2023/04/20 05:07:37;;;;;;;10.30;8.23;;;;;;;;;;5111291;28;20649;-80
2023/04/20 05:10:04;;;;;;;11.60;8.57;;;;;;;;;;5111465;28;20692;-79
2023/04/20 05:12:31;;;;;;;11.53;8.60;;;;;;;;;;5111325;28;20242;-80
2023/04/20 05:14:58;;;;;;;11.20;8.30;;;;;;;;;;5111584;28;20618;-79
2023/04/20 05:17:26;;;;;;;11.67;7.77;;;;;;;;;;5112455;28;20672;-81
2023/04/20 05:19:53;;;;;;;10.27;7.53;;;;;;;;;;5115591;28;20201;-80
2023/04/20 05:22:20;;;;;;;9.83;7.40;;;;;;;;;;5112585;28;20273;-80
2023/04/20 05:24:49;;;;;;;11.50;7.07;;;;;;;;;;5102017;28;20288;-80
2023/04/20 05:27:16;;;;;;;9.17;7.57;;;;;;;;;;5114030;28;20228;-80
2023/04/20 05:29:43;;;;;;;11.80;7.43;;;;;;;;;;5114385;28;20276;-81
2023/04/20 05:32:10;;;;;;;10.47;7.37;;;;;;;;;;5115321;28;20870;-81
2023/04/20 05:34:37;;;;;;;10.13;7.00;;;;;;;;;;5128897;27;20285;-80
2023/04/20 05:37:05;;;;;;;11.37;7.47;;;;;;;;;;5114882;28;20224;-80
2023/04/20 05:39:32;;;;;;;10.17;6.90;;;;;;;;;;5114965;28;20237;-79
2023/04/20 05:42:01;;;;;;;10.10;6.37;;;;;;;;;;5115050;28;20265;-81
2023/04/20 05:44:28;;;;;;;8.83;6.70;;;;;;;;;;5114971;28;20650;-82
2023/04/20 05:46:55;;;;;;;8.97;6.57;;;;;;;;;;5115423;28;20261;-80
2023/04/20 05:49:22;;;;;;;9.90;6.53;;;;;;;;;;5112913;28;20197;-80
2023/04/20 05:51:49;;;;;;;11.10;7.03;;;;;;;;;;5095227;28;20229;-80
2023/04/20 05:54:17;;;;;;;9.63;7.20;;;;;;;;;;5109421;28;20232;-79
2023/04/20 05:56:44;;;;;;;8.30;6.47;;;;;;;;;;5114755;27;20218;-80
2023/04/20 05:59:12;;;;;;;9.40;6.57;;;;;;;;;;5114703;28;20233;-80
2023/04/20 06:01:40;;;;;;;7.83;6.17;;;;;;;;;;5115131;28;20240;-79
2023/04/20 06:04:07;;;;;;;9.17;7.20;;;;;;;;;;5114332;28;20245;-80
2023/04/20 06:06:34;;;;;;;8.63;6.27;;;;;;;;;;5114920;28;20199;-79
2023/04/20 06:09:02;;;;;;;8.33;6.37;;;;;;;;;;5114900;28;20280;-80
2023/04/20 06:11:30;;;;;;;8.83;6.37;;;;;;;;;;5114705;28;20197;-81
2023/04/20 06:13:57;;;;;;;9.00;6.47;;;;;;;;;;5114723;28;20229;-80
2023/04/20 06:16:25;;;;;;;7.57;6.20;;;;;;;;;;5114752;28;20616;-80
2023/04/20 06:18:53;;;;;;;8.10;6.47;;;;;;;;;;5114474;28;20249;-79
2023/04/20 06:21:20;;;;;;;9.43;6.50;;;;;;;;;;5114752;28;20280;-81
2023/04/20 06:23:47;;;;;;;8.33;6.00;;;;;;;;;;5114343;28;20237;-80
2023/04/20 06:26:14;;;;;;;6.93;5.80;;;;;;;;;;5114433;28;20280;-80
2023/04/20 06:28:41;;;;;;;10.07;6.13;;;;;;;;;;5113551;28;20204;-79
2023/04/20 06:31:09;;;;;;;7.77;6.17;;;;;;;;;;5114704;28;20248;-80
2023/04/20 06:33:37;;;;;;;9.53;6.23;;;;;;;;;;5114168;28;20206;-81
2023/04/20 06:36:07;;;;;;;8.53;6.23;;;;;;;;;;5114043;28;20221;-81
2023/04/20 06:38:34;;;;;;;8.93;5.90;;;;;;;;;;5114093;28;20328;-81
2023/04/20 06:41:01;;;;;;;8.47;6.13;;;;;;;;;;5114442;28;20284;-81
2023/04/20 06:43:29;;;;;;;6.90;5.63;;;;;;;;;;5114035;28;20189;-80
2023/04/20 06:45:56;;;;;;;7.43;5.90;;;;;;;;;;5114618;28;20297;-79
2023/04/20 06:48:23;;;;;;;7.20;5.23;;;;;;;;;;5113919;28;20248;-81
2023/04/20 06:50:52;;;;;;;7.70;5.80;;;;;;;;;;5113985;28;20285;-80
2023/04/20 06:53:19;;;;;;;9.10;5.40;;;;;;;;;;5113883;28;20197;-81
2023/04/20 06:55:46;;;;;;;10.50;5.93;;;;;;;;;;5114442;28;20292;-81
2023/04/20 06:58:13;;;;;;;6.23;5.27;;;;;;;;;;5113613;28;20249;-81
2023/04/20 07:00:40;;;;;;;7.93;5.77;;;;;;;;;;5113710;28;20216;-80
2023/04/20 07:03:08;;;;;;;6.90;5.87;;;;;;;;;;5113440;28;20281;-81
2023/04/20 07:05:36;;;;;;;6.90;5.75;;;;;;;;;;5114055;28;20197;-81
2023/04/20 07:08:05;;;;;;;8.18;5.80;;;;;;;;;;5113961;28;20247;-81
2023/04/20 07:10:32;;;;;;;8.32;6.00;;;;;;;;;;5113825;28;20246;-82
2023/04/20 07:12:59;;;;;;;6.32;5.50;;;;;;;;;;5113640;28;20285;-81
2023/04/20 07:15:27;;;;;;;7.00;5.95;;;;;;;;;;5113480;28;20218;-81
2023/04/20 07:17:54;;;;;;;6.20;5.50;;;;;;;;;;5112875;28;20378;-81
2023/04/20 07:20:21;;;;;;;6.55;5.95;;;;;;;;;;5113450;28;20607;-82
2023/04/20 07:22:48;;;;;;;7.63;5.95;;;;;;;;;;5113737;28;20221;-81
2023/04/20 07:25:17;;;;;;;8.23;5.85;;;;;;;;;;5113258;28;20293;-82
2023/04/20 07:27:44;;;;;;;9.57;5.30;;;;;;;;;;5113434;28;20288;-82
2023/04/20 07:30:12;;;;;;;7.35;5.53;;;;;;;;;;5113065;28;20232;-82
2023/04/20 07:32:40;;;;;;;8.15;5.82;;;;;;;;;;5112898;28;20214;-81
2023/04/20 07:35:08;;;;;;;6.90;5.43;;;;;;;;;;5113171;28;20198;-82
2023/04/20 07:37:35;;;;;;;7.95;5.78;;;;;;;;;;5113342;28;20232;-82
2023/04/20 07:40:04;;;;;;;7.03;5.50;;;;;;;;;;5112606;28;20316;-82
2023/04/20 07:42:35;;;;;;;8.27;5.50;;;;;;;;;;5112703;28;20233;-81
2023/04/20 07:45:03;;;;;;;6.60;5.85;;;;;;;;;;5113057;28;20194;-82
2023/04/20 07:47:30;;;;;;;9.10;5.90;;;;;;;;;;5112396;28;20205;-81
2023/04/20 07:49:57;;;;;;;6.32;5.70;;;;;;;;;;5113064;28;20197;-82
2023/04/20 07:52:24;;;;;;;6.20;5.57;;;;;;;;;;5113030;28;20213;-82
2023/04/20 07:54:53;;;;;;;8.18;5.43;;;;;;;;;;5113002;28;20285;-82
2023/04/20 07:57:20;;;;;;;6.10;5.50;;;;;;;;;;5112786;28;20289;-82
2023/04/20 07:59:49;;;;;;;5.85;5.13;;;;;;;;;;5112974;28;20225;-81
2023/04/20 08:02:16;;;;;;;9.45;5.50;;;;;;;;;;5112197;28;20288;-81
2023/04/20 08:04:45;;;;;;;7.35;5.72;;;;;;;;;;5112309;28;20281;-81
2023/04/20 08:07:12;;;;;;;9.75;6.22;;;;;;;;;;5112732;28;20605;-81
2023/04/20 08:09:40;;;;;;;6.93;5.45;;;;;;;;;;5112694;28;20254;-81
2023/04/20 08:12:07;;;;;;;5.82;5.32;;;;;;;;;;5112344;28;21002;-81
2023/04/20 08:14:36;;;;;;;7.88;5.85;;;;;;;;;;5112067;28;20197;-81
2023/04/20 08:17:05;;;;;;;7.28;5.25;;;;;;;;;;5112626;28;20606;-82
2023/04/20 08:19:32;;;;;;;9.07;6.10;;;;;;;;;;5112033;28;20309;-82
2023/04/20 08:22:00;;;;;;;7.20;5.82;;;;;;;;;;5112493;28;20284;-81
2023/04/20 08:24:27;;;;;;;6.15;5.55;;;;;;;;;;5112255;28;20229;-82
2023/04/20 08:26:54;;;;;;;7.72;5.80;;;;;;;;;;5112399;28;20284;-81
2023/04/20 08:29:21;;;;;;;8.82;5.57;;;;;;;;;;5111640;28;20232;-82
2023/04/20 08:31:48;;;;;;;7.80;6.00;;;;;;;;;;5112135;28;20193;-81
2023/04/20 08:34:17;;;;;;;6.97;5.63;;;;;;;;;;5111997;28;20284;-82
2023/04/20 08:36:45;;;;;;;7.47;5.88;;;;;;;;;;5111899;28;20717;-82
2023/04/20 08:39:13;;;;;;;5.82;5.30;;;;;;;;;;5112137;28;20229;-82
2023/04/20 08:41:40;;;;;;;8.68;5.43;;;;;;;;;;5112337;28;20237;-82
2023/04/20 08:44:07;;;;;;;10.27;5.97;;;;;;;;;;5112494;28;20201;-82
2023/04/20 08:46:35;;;;;;;7.82;5.53;;;;;;;;;;5112880;28;20202;-82
2023/04/20 08:49:02;;;;;;;7.82;5.45;;;;;;;;;;5112932;28;20225;-80
2023/04/20 08:51:32;;;;;;;8.57;5.30;;;;;;;;;;5112537;28;20204;-81
2023/04/20 08:54:02;;;;;;;6.38;5.10;;;;;;;;;;5111935;28;20201;-82
2023/04/20 08:56:34;;;;;;;6.15;5.55;;;;;;;;;;5111823;28;20659;-81
2023/04/20 08:59:04;;;;;;;9.52;5.30;;;;;;;;;;5112056;28;20290;-82
2023/04/20 09:01:31;;;;;;;6.63;5.20;;;;;;;;;;5111779;28;20225;-81
2023/04/20 09:03:59;;;;;;;6.80;5.25;;;;;;;;;;5111954;28;20725;-82
2023/04/20 09:06:26;;;;;;;6.00;5.38;;;;;;;;;;5112216;28;20200;-82
2023/04/20 09:08:55;;;;;;;8.82;6.22;;;;;;;;;;5111859;28;20208;-82
2023/04/20 09:11:23;;;;;;;7.65;5.43;;;;;;;;;;5111824;28;20250;-82
2023/04/20 09:14:00;;;;;;;7.10;5.55;;;;;;;;;;5111833;28;20624;-81
2023/04/20 09:16:27;;;;;;;6.38;5.30;;;;;;;;;;5112635;28;20229;-82
2023/04/20 09:18:55;;;;;;;6.53;5.25;;;;;;;;;;5112078;28;20296;-82
2023/04/20 09:21:23;;;;;;;6.55;5.20;;;;;;;;;;5111958;28;20189;-82
2023/04/20 09:23:58;;;;;;;6.80;5.57;;;;;;;;;;5112131;28;20196;-83
2023/04/20 09:26:25;;;;;;;8.27;5.57;;;;;;;;;;5112123;28;20225;-82
2023/04/20 09:28:53;;;;;;;6.93;5.70;;;;;;;;;;5111820;28;20197;-82
2023/04/20 09:31:21;;;;;;;7.47;5.47;;;;;;;;;;5112322;28;20236;-81
2023/04/20 09:33:56;;;;;;;7.53;5.10;;;;;;;;;;5112041;28;20217;-82
2023/04/20 09:36:23;;;;;;;5.82;5.30;;;;;;;;;;5112070;28;20744;-82
2023/04/20 09:39:03;;;;;;;7.28;5.55;;;;;;;;;;5111684;28;20692;-81
2023/04/20 09:41:30;;;;;;;6.97;5.28;;;;;;;;;;5111531;28;20239;-82
2023/04/20 09:43:58;;;;;;;5.60;5.00;;;;;;;;;;5111594;28;20232;-81
2023/04/20 09:46:25;;;;;;;8.60;5.43;;;;;;;;;;5112078;28;20289;-81
2023/04/20 09:48:53;;;;;;;5.50;5.00;;;;;;;;;;5112274;28;20194;-82
2023/04/20 09:51:21;;;;;;;7.03;5.25;;;;;;;;;;5112412;28;20746;-82
2023/04/20 09:53:48;;;;;;;6.35;5.03;;;;;;;;;;5111984;28;20273;-82
2023/04/20 09:56:17;;;;;;;8.55;4.80;;;;;;;;;;5111208;28;20244;-82
2023/04/20 09:58:45;;;;;;;6.85;5.05;;;;;;;;;;5111495;28;20280;-82
2023/04/20 10:01:12;;;;;;;7.07;4.50;;;;;;;;;;5111995;28;20276;-82
2023/04/20 10:03:42;;;;;;;7.35;4.72;;;;;;;;;;5111760;28;20292;-82
2023/04/20 10:06:18;;;;;;;6.68;4.90;;;;;;;;;;5115387;28;20201;-82
2023/04/20 10:08:46;;;;;;;6.60;5.35;;;;;;;;;;5115488;28;20232;-81
2023/04/20 10:11:24;;;;;;;9.52;4.85;;;;;;;;;;5115379;28;20276;-82
2023/04/20 10:13:53;;;;;;;7.53;4.93;;;;;;;;;;5115004;28;20209;-81
2023/04/20 10:16:20;;;;;;;7.88;5.30;;;;;;;;;;5115488;28;20281;-82
2023/04/20 10:18:56;;;;;;;5.82;4.88;;;;;;;;;;5115108;28;20193;-82
2023/04/20 10:21:24;;;;;;;5.60;4.95;;;;;;;;;;5115493;28;20197;-81
2023/04/20 10:23:51;;;;;;;6.22;5.07;;;;;;;;;;5115245;28;20208;-82
2023/04/20 10:26:18;;;;;;;6.60;4.88;;;;;;;;;;5114893;28;20194;-82
2023/04/20 10:28:45;;;;;;;5.57;4.78;;;;;;;;;;5115316;28;20284;-81
2023/04/20 10:31:15;;;;;;;5.10;4.60;;;;;;;;;;5114682;28;20232;-82
2023/04/20 10:33:53;;;;;;;6.20;4.93;;;;;;;;;;5114787;28;20658;-81
2023/04/20 10:36:27;;;;;;;6.07;4.60;;;;;;;;;;5115117;28;20280;-81
2023/04/20 10:38:54;;;;;;;7.22;5.18;;;;;;;;;;5115311;28;20316;-81
2023/04/20 10:41:22;;;;;;;6.13;4.57;;;;;;;;;;5114152;28;20194;-83
2023/04/20 10:43:49;;;;;;;6.70;4.75;;;;;;;;;;5115050;28;20654;-82
2023/04/20 10:46:18;;;;;;;9.05;4.93;;;;;;;;;;5114652;28;20194;-82
2023/04/20 10:48:52;;;;;;;5.15;4.40;;;;;;;;;;5114492;28;20221;-82
2023/04/20 10:51:19;;;;;;;5.68;4.93;;;;;;;;;;5114807;28;20301;-82
2023/04/20 10:53:47;;;;;;;7.13;4.93;;;;;;;;;;5114761;28;20288;-82
2023/04/20 10:56:14;;;;;;;4.80;4.22;;;;;;;;;;5114272;28;20280;-81
2023/04/20 10:58:42;;;;;;;5.40;4.43;;;;;;;;;;5114920;28;20815;-83
2023/04/20 11:01:09;;;;;;;7.72;4.60;;;;;;;;;;5114492;27;20229;-83
2023/04/20 11:03:38;;;;;;;5.82;3.90;;;;;;;;;;5114203;28;20250;-82
2023/04/20 11:06:05;;;;;;;4.90;4.15;;;;;;;;;;5113952;28;20325;-82
2023/04/20 11:08:39;;;;;;;4.80;3.85;;;;;;;;;;5114686;28;20280;-82
2023/04/20 11:11:07;;;;;;;4.50;3.60;;;;;;;;;;5114280;28;20265;-82
2023/04/20 11:13:34;;;;;;;4.72;3.40;;;;;;;;;;5114371;28;20204;-82
2023/04/20 11:16:10;;;;;;;6.00;4.18;;;;;;;;;;5114233;28;20312;-82
2023/04/20 11:18:46;;;;;;;5.78;3.50;;;;;;;;;;5113949;28;20654;-82
2023/04/20 11:21:14;;;;;;;4.22;3.40;;;;;;;;;;5114100;28;20252;-82
2023/04/20 11:23:42;;;;;;;4.28;3.30;;;;;;;;;;5113812;28;20646;-82
2023/04/20 11:26:09;;;;;;;4.53;3.40;;;;;;;;;;5114401;28;20279;-82
2023/04/20 11:28:36;;;;;;;4.40;3.47;;;;;;;;;;5113737;28;20189;-81
2023/04/20 11:31:04;;;;;;;3.78;3.22;;;;;;;;;;5114249;28;20297;-82
2023/04/20 11:33:32;;;;;;;4.68;3.58;;;;;;;;;;5113973;28;20648;-81
2023/04/20 11:36:01;;;;;;;3.75;3.35;;;;;;;;;;5113698;28;20606;-82
2023/04/20 11:38:29;;;;;;;4.10;3.30;;;;;;;;;;5113650;28;20194;-82
2023/04/20 11:40:59;;;;;;;5.22;3.40;;;;;;;;;;5113763;28;20229;-82
2023/04/20 11:43:26;;;;;;;5.30;3.20;;;;;;;;;;5113340;28;20233;-82
2023/04/20 11:45:53;;;;;;;5.18;3.33;;;;;;;;;;5113647;28;20285;-82
2023/04/20 11:48:21;;;;;;;4.38;3.47;;;;;;;;;;5113533;28;20193;-82
2023/04/20 11:50:48;;;;;;;4.65;2.97;;;;;;;;;;5113543;28;20338;-82
2023/04/20 11:53:17;;;;;;;5.25;3.17;;;;;;;;;;5112825;28;20729;-82
2023/04/20 11:55:44;;;;;;;3.85;3.00;;;;;;;;;;5113655;28;20254;-82
2023/04/20 11:58:11;;;;;;;3.30;3.00;;;;;;;;;;5113294;28;20201;-82
2023/04/20 12:00:39;;;;;;;3.60;2.85;;;;;;;;;;5113398;28;20316;-82
2023/04/20 12:03:06;;;;;;;4.45;2.85;;;;;;;;;;5113588;28;20225;-81
2023/04/20 12:05:33;;;;;;;3.80;2.95;;;;;;;;;;5113566;28;20281;-82
2023/04/20 12:08:00;;;;;;;4.85;3.20;;;;;;;;;;5112492;28;20204;-82
2023/04/20 12:10:29;;;;;;;4.35;2.65;;;;;;;;;;5113315;28;20196;-82
2023/04/20 12:12:57;;;;;;;3.22;2.67;;;;;;;;;;5113073;28;20281;-82
2023/04/20 12:15:24;;;;;;;4.07;2.58;;;;;;;;;;5113063;28;20251;-81
2023/04/20 12:17:51;;;;;;;7.93;2.95;;;;;;;;;;5112956;28;20281;-82
2023/04/20 12:20:19;;;;;;;4.22;2.92;;;;;;;;;;5112954;28;20332;-81
2023/04/20 12:22:46;;;;;;;3.88;3.22;;;;;;;;;;5112658;28;20198;-82
2023/04/20 12:25:13;;;;;;;3.70;3.30;;;;;;;;;;5112876;28;20202;-82
2023/04/20 12:27:42;;;;;;;5.68;3.30;;;;;;;;;;5112271;28;20194;-83
2023/04/20 12:30:09;;;;;;;3.80;3.38;;;;;;;;;;5113027;28;20229;-82
2023/04/20 12:32:36;;;;;;;3.25;2.92;;;;;;;;;;5112815;28;20246;-82
2023/04/20 12:35:04;;;;;;;4.55;3.30;;;;;;;;;;5112698;28;20221;-81
2023/04/20 12:37:31;;;;;;;3.72;2.97;;;;;;;;;;5111634;28;20221;-82
2023/04/20 12:39:58;;;;;;;3.30;3.00;;;;;;;;;;5111782;28;20751;-82
2023/04/20 12:42:26;;;;;;;3.38;2.80;;;;;;;;;;5112007;28;20772;-82
2023/04/20 12:44:55;;;;;;;5.97;2.80;;;;;;;;;;5112112;28;20202;-82
2023/04/20 12:47:22;;;;;;;3.95;3.30;;;;;;;;;;5112279;28;20632;-82
2023/04/20 12:49:49;;;;;;;3.58;3.17;;;;;;;;;;5112170;28;20221;-82
2023/04/20 12:52:16;;;;;;;3.88;3.20;;;;;;;;;;5111533;28;20681;-81
2023/04/20 12:54:43;;;;;;;9.70;3.47;;;;;;;;;;5111704;28;20200;-81
2023/04/20 12:57:11;;;;;;;4.13;3.30;;;;;;;;;;5111975;28;20194;-82
2023/04/20 12:59:38;;;;;;;4.45;3.00;;;;;;;;;;5111869;28;20274;-82
2023/04/20 13:02:06;;;;;;;4.15;3.13;;;;;;;;;;5111856;28;20233;-82
2023/04/20 13:04:35;;;;;;;3.70;3.13;;;;;;;;;;5111665;28;20273;-81
2023/04/20 13:07:02;;;;;;;4.30;3.28;;;;;;;;;;5111613;28;20288;-82
2023/04/20 13:09:29;;;;;;;5.47;3.85;;;;;;;;;;5111696;28;20221;-82
2023/04/20 13:11:56;;;;;;;4.75;3.63;;;;;;;;;;5111631;28;20624;-81
2023/04/20 13:14:24;;;;;;;5.10;3.50;;;;;;;;;;5112233;28;20206;-82
2023/04/20 13:16:51;;;;;;;5.55;3.50;;;;;;;;;;5111780;28;20289;-81
2023/04/20 13:19:19;;;;;;;5.97;3.40;;;;;;;;;;5111326;28;20717;-82
2023/04/20 13:21:46;;;;;;;5.15;3.65;;;;;;;;;;5112019;28;20312;-82
2023/04/20 13:24:14;;;;;;;3.78;3.28;;;;;;;;;;5111555;28;20282;-82
2023/04/20 13:26:41;;;;;;;4.20;3.80;;;;;;;;;;5111484;28;20700;-81
2023/04/20 13:29:08;;;;;;;5.10;3.75;;;;;;;;;;5111710;28;20245;-82
2023/04/20 13:31:35;;;;;;;4.65;3.50;;;;;;;;;;5112076;28;20221;-82
2023/04/20 13:34:03;;;;;;;5.65;3.80;;;;;;;;;;5111116;28;20548;-81
2023/04/20 13:36:32;;;;;;;4.40;4.00;;;;;;;;;;5111435;28;20272;-81
2023/04/20 13:38:59;;;;;;;5.72;3.75;;;;;;;;;;5113643;28;20247;-81
2023/04/20 13:41:26;;;;;;;5.43;3.63;;;;;;;;;;5115107;28;20316;-81
2023/04/20 13:43:53;;;;;;;4.43;3.83;;;;;;;;;;5115625;28;20221;-81
2023/04/20 13:46:20;;;;;;;4.20;3.80;;;;;;;;;;5115418;28;20281;-82
2023/04/20 13:48:47;;;;;;;5.80;3.97;;;;;;;;;;5115234;28;20247;-82
2023/04/20 13:51:15;;;;;;;6.00;3.92;;;;;;;;;;5115276;28;20303;-81
2023/04/20 13:53:43;;;;;;;4.45;3.90;;;;;;;;;;5115378;28;20623;-82
2023/04/20 13:56:10;;;;;;;8.05;4.20;;;;;;;;;;5115163;28;20284;-81
2023/04/20 13:58:38;;;;;;;3.65;3.33;;;;;;;;;;5115426;28;20292;-82
2023/04/20 14:01:08;;;;;;;4.88;3.60;;;;;;;;;;5115048;28;20663;-82
2023/04/20 14:03:35;;;;;;;4.55;3.90;;;;;;;;;;5114956;28;20202;-82
2023/04/20 14:06:02;;;;;;;5.57;4.20;;;;;;;;;;5115173;28;20232;-82
2023/04/20 14:08:29;;;;;;;4.95;4.32;;;;;;;;;;5114608;28;20190;-81
2023/04/20 14:10:58;;;;;;;5.78;4.07;;;;;;;;;;5115096;28;20313;-82
2023/04/20 14:13:25;;;;;;;4.40;3.90;;;;;;;;;;5115048;28;20225;-81
2023/04/20 14:15:53;;;;;;;9.05;4.30;;;;;;;;;;5114642;28;20582;-82
2023/04/20 14:18:20;;;;;;;5.13;4.50;;;;;;;;;;5113850;28;20201;-82
2023/04/20 14:20:51;;;;;;;4.70;4.18;;;;;;;;;;5114603;28;20336;-82
2023/04/20 14:23:18;;;;;;;4.88;3.80;;;;;;;;;;5114612;28;20231;-82
2023/04/20 14:25:45;;;;;;;4.82;3.78;;;;;;;;;;5114836;28;20625;-82
2023/04/20 14:28:15;;;;;;;5.18;4.10;;;;;;;;;;5114598;28;20292;-81
2023/04/20 14:30:44;;;;;;;5.13;4.00;;;;;;;;;;5114656;28;20193;-81
2023/04/20 14:33:11;;;;;;;6.13;4.63;;;;;;;;;;5114081;28;20190;-81
2023/04/20 14:35:38;;;;;;;5.15;4.25;;;;;;;;;;5114722;28;20194;-82
2023/04/20 14:38:05;;;;;;;12.65;5.07;;;;;;;;;;5114349;28;20222;-81
2023/04/20 14:40:32;;;;;;;5.55;4.80;;;;;;;;;;5114589;28;20249;-81
2023/04/20 14:43:00;;;;;;;9.63;4.97;;;;;;;;;;5114100;28;20316;-81